sensor_id;sensor_type;location;lat;lon;timestamp;P1;durP1;ratioP1;P2;durP2;ratioP2
71083;SDS011;58741;52.672;13.548;2023-04-21T00:01:12;2.22;;;1.60;;
71083;SDS011;58741;52.672;13.548;2023-04-21T00:03:38;1.95;;;1.63;;
71083;SDS011;58741;52.672;13.548;2023-04-21T00:06:05;2.72;;;1.80;;
71083;SDS011;58741;52.672;13.548;2023-04-21T00:08:32;2.03;;;1.48;;
71083;SDS011;58741;52.672;13.548;2023-04-21T00:10:58;3.63;;;2.05;;
71083;SDS011;58741;52.672;13.548;2023-04-21T00:13:23;2.40;;;1.42;;
71083;SDS011;58741;52.672;13.548;2023-04-21T00:15:49;1.55;;;1.35;;
71083;SDS011;58741;52.672;13.548;2023-04-21T00:18:15;1.38;;;1.27;;
71083;SDS011;58741;52.672;13.548;2023-04-21T00:20:42;2.67;;;1.70;;
71083;SDS011;58741;52.672;13.548;2023-04-21T00:23:09;4.15;;;1.85;;
71083;SDS011;58741;52.672;13.548;2023-04-21T00:25:37;2.38;;;1.65;;
71083;SDS011;58741;52.672;13.548;2023-04-21T00:28:03;1.40;;;1.20;;
71083;SDS011;58741;52.672;13.548;2023-04-21T00:30:29;2.83;;;1.85;;
71083;SDS011;58741;52.672;13.548;2023-04-21T00:32:56;1.70;;;1.50;;
71083;SDS011;58741;52.672;13.548;2023-04-21T00:35:21;1.48;;;1.38;;
71083;SDS011;58741;52.672;13.548;2023-04-21T00:37:47;5.90;;;2.10;;
71083;SDS011;58741;52.672;13.548;2023-04-21T00:40:14;1.70;;;1.60;;
71083;SDS011;58741;52.672;13.548;2023-04-21T00:42:40;2.60;;;1.73;;
71083;SDS011;58741;52.672;13.548;2023-04-21T00:45:05;2.25;;;1.55;;
71083;SDS011;58741;52.672;13.548;2023-04-21T00:47:31;2.90;;;1.95;;
71083;SDS011;58741;52.672;13.548;2023-04-21T00:49:57;3.35;;;2.13;;
71083;SDS011;58741;52.672;13.548;2023-04-21T00:52:23;2.97;;;2.03;;
71083;SDS011;58741;52.672;13.548;2023-04-21T00:54:49;3.60;;;2.33;;
71083;SDS011;58741;52.672;13.548;2023-04-21T00:57:15;3.70;;;2.17;;
71083;SDS011;58741;52.672;13.548;2023-04-21T00:59:41;3.28;;;2.28;;
71083;SDS011;58741;52.672;13.548;2023-04-21T01:02:07;8.38;;;1.95;;
71083;SDS011;58741;52.672;13.548;2023-04-21T01:04:33;2.78;;;2.05;;
71083;SDS011;58741;52.672;13.548;2023-04-21T01:07:04;2.70;;;2.00;;
71083;SDS011;58741;52.672;13.548;2023-04-21T01:09:31;4.80;;;1.80;;
71083;SDS011;58741;52.672;13.548;2023-04-21T01:12:04;2.17;;;1.88;;
71083;SDS011;58741;52.672;13.548;2023-04-21T01:14:32;4.88;;;2.40;;
71083;SDS011;58741;52.672;13.548;2023-04-21T01:16:58;1.85;;;1.60;;
71083;SDS011;58741;52.672;13.548;2023-04-21T01:19:25;2.63;;;1.98;;
71083;SDS011;58741;52.672;13.548;2023-04-21T01:21:54;2.05;;;1.73;;
71083;SDS011;58741;52.672;13.548;2023-04-21T01:24:22;1.60;;;1.42;;
71083;SDS011;58741;52.672;13.548;2023-04-21T01:26:51;3.38;;;1.85;;
71083;SDS011;58741;52.672;13.548;2023-04-21T01:29:17;2.28;;;2.05;;
71083;SDS011;58741;52.672;13.548;2023-04-21T01:31:42;6.05;;;2.10;;
71083;SDS011;58741;52.672;13.548;2023-04-21T01:34:10;2.72;;;1.95;;
71083;SDS011;58741;52.672;13.548;2023-04-21T01:36:35;3.72;;;1.65;;
71083;SDS011;58741;52.672;13.548;2023-04-21T01:39:01;2.15;;;1.80;;
71083;SDS011;58741;52.672;13.548;2023-04-21T01:41:28;2.65;;;2.15;;
71083;SDS011;58741;52.672;13.548;2023-04-21T01:43:54;2.42;;;2.13;;
71083;SDS011;58741;52.672;13.548;2023-04-21T01:46:22;3.55;;;2.53;;
71083;SDS011;58741;52.672;13.548;2023-04-21T01:48:48;2.38;;;1.95;;
71083;SDS011;58741;52.672;13.548;2023-04-21T01:51:13;5.72;;;2.42;;
71083;SDS011;58741;52.672;13.548;2023-04-21T01:53:39;3.10;;;2.17;;
71083;SDS011;58741;52.672;13.548;2023-04-21T01:56:05;6.40;;;2.28;;
71083;SDS011;58741;52.672;13.548;2023-04-21T01:58:30;2.97;;;2.40;;
71083;SDS011;58741;52.672;13.548;2023-04-21T02:00:56;4.28;;;2.13;;
71083;SDS011;58741;52.672;13.548;2023-04-21T02:03:22;4.88;;;3.28;;
71083;SDS011;58741;52.672;13.548;2023-04-21T02:05:49;2.65;;;2.30;;
71083;SDS011;58741;52.672;13.548;2023-04-21T02:08:16;6.13;;;2.30;;
71083;SDS011;58741;52.672;13.548;2023-04-21T02:10:41;3.95;;;2.50;;
71083;SDS011;58741;52.672;13.548;2023-04-21T02:13:10;4.30;;;2.25;;
71083;SDS011;58741;52.672;13.548;2023-04-21T02:15:36;3.72;;;2.03;;
71083;SDS011;58741;52.672;13.548;2023-04-21T02:18:01;4.70;;;2.97;;
71083;SDS011;58741;52.672;13.548;2023-04-21T02:20:27;6.03;;;2.08;;
71083;SDS011;58741;52.672;13.548;2023-04-21T02:22:53;2.88;;;1.80;;
71083;SDS011;58741;52.672;13.548;2023-04-21T02:25:18;2.95;;;2.25;;
71083;SDS011;58741;52.672;13.548;2023-04-21T02:27:44;3.75;;;2.53;;
71083;SDS011;58741;52.672;13.548;2023-04-21T02:30:09;2.28;;;1.98;;
71083;SDS011;58741;52.672;13.548;2023-04-21T02:32:35;2.53;;;2.13;;
71083;SDS011;58741;52.672;13.548;2023-04-21T02:35:02;5.03;;;1.90;;
71083;SDS011;58741;52.672;13.548;2023-04-21T02:37:29;4.00;;;3.08;;
71083;SDS011;58741;52.672;13.548;2023-04-21T02:39:55;2.75;;;2.40;;
71083;SDS011;58741;52.672;13.548;2023-04-21T02:42:20;3.38;;;2.78;;
71083;SDS011;58741;52.672;13.548;2023-04-21T02:44:46;8.27;;;3.00;;
71083;SDS011;58741;52.672;13.548;2023-04-21T02:47:13;3.47;;;2.10;;
71083;SDS011;58741;52.672;13.548;2023-04-21T02:49:40;2.53;;;2.33;;
71083;SDS011;58741;52.672;13.548;2023-04-21T02:52:06;5.35;;;2.28;;
71083;SDS011;58741;52.672;13.548;2023-04-21T02:54:32;4.05;;;2.92;;
71083;SDS011;58741;52.672;13.548;2023-04-21T02:56:57;4.03;;;2.42;;
71083;SDS011;58741;52.672;13.548;2023-04-21T02:59:23;4.30;;;1.98;;
71083;SDS011;58741;52.672;13.548;2023-04-21T03:01:49;4.55;;;2.85;;
71083;SDS011;58741;52.672;13.548;2023-04-21T03:04:14;4.97;;;3.10;;
71083;SDS011;58741;52.672;13.548;2023-04-21T03:06:40;4.97;;;3.25;;
71083;SDS011;58741;52.672;13.548;2023-04-21T03:09:06;4.25;;;2.65;;
71083;SDS011;58741;52.672;13.548;2023-04-21T03:11:31;4.13;;;2.20;;
71083;SDS011;58741;52.672;13.548;2023-04-21T03:13:57;7.10;;;3.72;;
71083;SDS011;58741;52.672;13.548;2023-04-21T03:16:22;5.28;;;3.17;;
71083;SDS011;58741;52.672;13.548;2023-04-21T03:18:48;4.75;;;3.15;;
71083;SDS011;58741;52.672;13.548;2023-04-21T03:21:14;2.83;;;2.50;;
71083;SDS011;58741;52.672;13.548;2023-04-21T03:23:40;3.90;;;2.80;;
71083;SDS011;58741;52.672;13.548;2023-04-21T03:26:06;3.85;;;2.78;;
71083;SDS011;58741;52.672;13.548;2023-04-21T03:28:32;2.53;;;2.28;;
71083;SDS011;58741;52.672;13.548;2023-04-21T03:30:58;4.38;;;3.17;;
71083;SDS011;58741;52.672;13.548;2023-04-21T03:33:24;3.17;;;2.30;;
71083;SDS011;58741;52.672;13.548;2023-04-21T03:35:50;5.28;;;3.03;;
71083;SDS011;58741;52.672;13.548;2023-04-21T03:38:16;5.20;;;3.05;;
71083;SDS011;58741;52.672;13.548;2023-04-21T03:40:41;4.82;;;3.13;;
71083;SDS011;58741;52.672;13.548;2023-04-21T03:43:07;3.92;;;2.90;;
71083;SDS011;58741;52.672;13.548;2023-04-21T03:45:36;4.28;;;2.80;;
71083;SDS011;58741;52.672;13.548;2023-04-21T03:48:02;3.72;;;2.72;;
71083;SDS011;58741;52.672;13.548;2023-04-21T03:50:27;5.03;;;2.83;;
71083;SDS011;58741;52.672;13.548;2023-04-21T03:52:53;3.88;;;2.85;;
71083;SDS011;58741;52.672;13.548;2023-04-21T03:55:19;4.55;;;2.95;;
71083;SDS011;58741;52.672;13.548;2023-04-21T03:57:45;4.50;;;2.88;;
71083;SDS011;58741;52.672;13.548;2023-04-21T04:00:10;5.30;;;3.25;;
71083;SDS011;58741;52.672;13.548;2023-04-21T04:02:39;4.88;;;2.97;;
71083;SDS011;58741;52.672;13.548;2023-04-21T04:05:05;4.15;;;3.17;;
71083;SDS011;58741;52.672;13.548;2023-04-21T04:07:31;5.25;;;3.30;;
71083;SDS011;58741;52.672;13.548;2023-04-21T04:09:57;4.75;;;3.08;;
71083;SDS011;58741;52.672;13.548;2023-04-21T04:13:29;7.65;;;3.75;;
71083;SDS011;58741;52.672;13.548;2023-04-21T04:15:56;4.38;;;3.10;;
71083;SDS011;58741;52.672;13.548;2023-04-21T04:18:22;4.30;;;3.03;;
71083;SDS011;58741;52.672;13.548;2023-04-21T04:20:48;2.40;;;2.13;;
71083;SDS011;58741;52.672;13.548;2023-04-21T04:23:13;4.88;;;3.40;;
71083;SDS011;58741;52.672;13.548;2023-04-21T04:25:39;5.40;;;2.53;;
71083;SDS011;58741;52.672;13.548;2023-04-21T04:28:04;4.07;;;3.00;;
71083;SDS011;58741;52.672;13.548;2023-04-21T04:30:31;2.40;;;2.20;;
71083;SDS011;58741;52.672;13.548;2023-04-21T04:32:58;6.20;;;3.10;;
71083;SDS011;58741;52.672;13.548;2023-04-21T04:35:23;3.10;;;2.28;;
71083;SDS011;58741;52.672;13.548;2023-04-21T04:37:49;5.13;;;2.65;;
71083;SDS011;58741;52.672;13.548;2023-04-21T04:40:14;3.53;;;2.78;;
71083;SDS011;58741;52.672;13.548;2023-04-21T04:42:40;3.03;;;2.33;;
71083;SDS011;58741;52.672;13.548;2023-04-21T04:45:06;4.47;;;3.05;;
71083;SDS011;58741;52.672;13.548;2023-04-21T04:47:36;4.28;;;3.13;;
71083;SDS011;58741;52.672;13.548;2023-04-21T04:50:02;5.93;;;2.55;;
71083;SDS011;58741;52.672;13.548;2023-04-21T04:52:28;5.32;;;3.42;;
71083;SDS011;58741;52.672;13.548;2023-04-21T04:54:54;4.18;;;2.92;;
71083;SDS011;58741;52.672;13.548;2023-04-21T04:57:20;3.42;;;3.03;;
71083;SDS011;58741;52.672;13.548;2023-04-21T04:59:45;4.43;;;2.88;;
71083;SDS011;58741;52.672;13.548;2023-04-21T05:02:11;6.00;;;3.53;;
71083;SDS011;58741;52.672;13.548;2023-04-21T05:04:37;4.38;;;3.08;;
71083;SDS011;58741;52.672;13.548;2023-04-21T05:07:03;3.47;;;2.47;;
71083;SDS011;58741;52.672;13.548;2023-04-21T05:09:30;3.03;;;2.28;;
71083;SDS011;58741;52.672;13.548;2023-04-21T05:11:55;3.40;;;2.35;;
71083;SDS011;58741;52.672;13.548;2023-04-21T05:14:21;5.00;;;2.53;;
71083;SDS011;58741;52.672;13.548;2023-04-21T05:16:46;4.07;;;2.45;;
71083;SDS011;58741;52.672;13.548;2023-04-21T05:19:12;3.22;;;2.90;;
71083;SDS011;58741;52.672;13.548;2023-04-21T05:21:38;6.13;;;3.13;;
71083;SDS011;58741;52.672;13.548;2023-04-21T05:24:03;3.40;;;2.60;;
71083;SDS011;58741;52.672;13.548;2023-04-21T05:26:29;5.55;;;2.95;;
71083;SDS011;58741;52.672;13.548;2023-04-21T05:28:55;3.75;;;3.03;;
71083;SDS011;58741;52.672;13.548;2023-04-21T05:31:22;4.88;;;3.10;;
71083;SDS011;58741;52.672;13.548;2023-04-21T05:33:48;3.85;;;3.03;;
71083;SDS011;58741;52.672;13.548;2023-04-21T05:36:14;5.72;;;2.70;;
71083;SDS011;58741;52.672;13.548;2023-04-21T05:38:40;3.28;;;1.95;;
71083;SDS011;58741;52.672;13.548;2023-04-21T05:41:05;4.20;;;3.10;;
71083;SDS011;58741;52.672;13.548;2023-04-21T05:43:31;3.50;;;2.60;;
71083;SDS011;58741;52.672;13.548;2023-04-21T05:46:00;2.58;;;2.15;;
71083;SDS011;58741;52.672;13.548;2023-04-21T05:48:26;3.13;;;2.55;;
71083;SDS011;58741;52.672;13.548;2023-04-21T05:50:52;5.30;;;2.35;;
71083;SDS011;58741;52.672;13.548;2023-04-21T05:53:19;2.47;;;2.20;;
71083;SDS011;58741;52.672;13.548;2023-04-21T05:55:44;3.85;;;2.78;;
71083;SDS011;58741;52.672;13.548;2023-04-21T05:58:10;4.60;;;2.58;;
71083;SDS011;58741;52.672;13.548;2023-04-21T06:00:36;2.80;;;2.38;;
71083;SDS011;58741;52.672;13.548;2023-04-21T06:03:01;3.50;;;2.45;;
71083;SDS011;58741;52.672;13.548;2023-04-21T06:05:27;3.42;;;2.55;;
71083;SDS011;58741;52.672;13.548;2023-04-21T06:07:52;6.32;;;2.20;;
71083;SDS011;58741;52.672;13.548;2023-04-21T06:10:19;2.95;;;2.15;;
71083;SDS011;58741;52.672;13.548;2023-04-21T06:12:45;2.95;;;2.00;;
71083;SDS011;58741;52.672;13.548;2023-04-21T06:15:10;3.22;;;2.35;;
71083;SDS011;58741;52.672;13.548;2023-04-21T06:17:36;3.05;;;2.30;;
71083;SDS011;58741;52.672;13.548;2023-04-21T06:20:02;2.90;;;2.28;;
71083;SDS011;58741;52.672;13.548;2023-04-21T06:22:28;2.50;;;2.05;;
71083;SDS011;58741;52.672;13.548;2023-04-21T06:24:53;4.13;;;2.47;;
71083;SDS011;58741;52.672;13.548;2023-04-21T06:27:19;4.55;;;3.22;;
71083;SDS011;58741;52.672;13.548;2023-04-21T06:29:44;5.00;;;2.70;;
71083;SDS011;58741;52.672;13.548;2023-04-21T06:32:10;5.72;;;3.08;;
71083;SDS011;58741;52.672;13.548;2023-04-21T06:34:36;7.82;;;2.30;;
71083;SDS011;58741;52.672;13.548;2023-04-21T06:37:02;4.65;;;3.00;;
71083;SDS011;58741;52.672;13.548;2023-04-21T06:39:28;6.35;;;2.80;;
71083;SDS011;58741;52.672;13.548;2023-04-21T06:41:54;7.63;;;3.15;;
71083;SDS011;58741;52.672;13.548;2023-04-21T06:44:25;3.13;;;2.53;;
71083;SDS011;58741;52.672;13.548;2023-04-21T06:46:50;5.10;;;2.97;;
71083;SDS011;58741;52.672;13.548;2023-04-21T06:49:16;6.45;;;2.33;;
71083;SDS011;58741;52.672;13.548;2023-04-21T06:51:41;5.10;;;2.60;;
71083;SDS011;58741;52.672;13.548;2023-04-21T06:54:07;5.28;;;2.85;;
71083;SDS011;58741;52.672;13.548;2023-04-21T06:56:32;4.60;;;2.40;;
71083;SDS011;58741;52.672;13.548;2023-04-21T06:58:58;2.72;;;2.10;;
71083;SDS011;58741;52.672;13.548;2023-04-21T07:01:24;5.78;;;3.13;;
71083;SDS011;58741;52.672;13.548;2023-04-21T07:03:49;4.40;;;2.63;;
71083;SDS011;58741;52.672;13.548;2023-04-21T07:06:15;6.10;;;3.55;;
71083;SDS011;58741;52.672;13.548;2023-04-21T07:08:41;2.92;;;2.17;;
71083;SDS011;58741;52.672;13.548;2023-04-21T07:11:06;4.85;;;2.72;;
71083;SDS011;58741;52.672;13.548;2023-04-21T07:13:32;5.88;;;2.45;;
71083;SDS011;58741;52.672;13.548;2023-04-21T07:15:57;4.35;;;2.65;;
71083;SDS011;58741;52.672;13.548;2023-04-21T07:18:23;3.92;;;2.25;;
71083;SDS011;58741;52.672;13.548;2023-04-21T07:20:49;3.10;;;2.40;;
71083;SDS011;58741;52.672;13.548;2023-04-21T07:23:15;5.75;;;3.53;;
71083;SDS011;58741;52.672;13.548;2023-04-21T07:25:40;5.45;;;2.78;;
71083;SDS011;58741;52.672;13.548;2023-04-21T07:28:06;2.60;;;1.88;;
71083;SDS011;58741;52.672;13.548;2023-04-21T07:30:31;4.05;;;2.30;;
71083;SDS011;58741;52.672;13.548;2023-04-21T07:32:57;5.28;;;2.08;;
71083;SDS011;58741;52.672;13.548;2023-04-21T07:35:23;3.10;;;2.20;;
71083;SDS011;58741;52.672;13.548;2023-04-21T07:37:49;3.92;;;2.42;;
71083;SDS011;58741;52.672;13.548;2023-04-21T07:40:15;3.80;;;2.47;;
71083;SDS011;58741;52.672;13.548;2023-04-21T07:42:40;4.80;;;2.40;;
71083;SDS011;58741;52.672;13.548;2023-04-21T07:45:06;2.70;;;2.13;;
71083;SDS011;58741;52.672;13.548;2023-04-21T07:47:32;5.97;;;2.55;;
71083;SDS011;58741;52.672;13.548;2023-04-21T07:49:58;5.03;;;2.63;;
71083;SDS011;58741;52.672;13.548;2023-04-21T07:52:24;3.10;;;2.20;;
71083;SDS011;58741;52.672;13.548;2023-04-21T07:54:49;4.78;;;2.92;;
71083;SDS011;58741;52.672;13.548;2023-04-21T07:57:15;4.93;;;2.33;;
71083;SDS011;58741;52.672;13.548;2023-04-21T07:59:41;2.90;;;2.13;;
71083;SDS011;58741;52.672;13.548;2023-04-21T08:02:07;2.92;;;2.28;;
71083;SDS011;58741;52.672;13.548;2023-04-21T08:04:33;3.00;;;1.88;;
71083;SDS011;58741;52.672;13.548;2023-04-21T08:06:58;4.00;;;2.00;;
71083;SDS011;58741;52.672;13.548;2023-04-21T08:09:24;3.83;;;2.78;;
71083;SDS011;58741;52.672;13.548;2023-04-21T08:11:50;3.88;;;2.53;;
71083;SDS011;58741;52.672;13.548;2023-04-21T08:14:16;3.80;;;2.35;;
71083;SDS011;58741;52.672;13.548;2023-04-21T08:16:42;3.15;;;2.35;;
71083;SDS011;58741;52.672;13.548;2023-04-21T08:19:08;2.70;;;2.10;;
71083;SDS011;58741;52.672;13.548;2023-04-21T08:21:34;2.70;;;2.00;;
71083;SDS011;58741;52.672;13.548;2023-04-21T08:24:00;2.55;;;1.83;;
71083;SDS011;58741;52.672;13.548;2023-04-21T08:26:26;5.10;;;2.33;;
71083;SDS011;58741;52.672;13.548;2023-04-21T08:28:54;3.03;;;2.33;;
71083;SDS011;58741;52.672;13.548;2023-04-21T08:31:20;2.65;;;2.30;;
71083;SDS011;58741;52.672;13.548;2023-04-21T08:33:46;3.28;;;2.42;;
71083;SDS011;58741;52.672;13.548;2023-04-21T08:36:12;3.55;;;2.50;;
71083;SDS011;58741;52.672;13.548;2023-04-21T08:38:38;2.97;;;2.47;;
71083;SDS011;58741;52.672;13.548;2023-04-21T08:41:04;2.08;;;1.88;;
71083;SDS011;58741;52.672;13.548;2023-04-21T08:43:31;5.28;;;2.58;;
71083;SDS011;58741;52.672;13.548;2023-04-21T08:45:57;2.85;;;2.25;;
71083;SDS011;58741;52.672;13.548;2023-04-21T08:48:24;3.40;;;2.35;;
71083;SDS011;58741;52.672;13.548;2023-04-21T08:50:51;4.07;;;2.28;;
71083;SDS011;58741;52.672;13.548;2023-04-21T08:53:18;3.67;;;2.40;;
71083;SDS011;58741;52.672;13.548;2023-04-21T08:55:44;2.67;;;1.88;;
71083;SDS011;58741;52.672;13.548;2023-04-21T08:58:10;5.13;;;2.28;;
71083;SDS011;58741;52.672;13.548;2023-04-21T09:00:37;3.38;;;2.05;;
71083;SDS011;58741;52.672;13.548;2023-04-21T09:03:05;5.35;;;2.20;;
71083;SDS011;58741;52.672;13.548;2023-04-21T09:05:32;4.18;;;2.15;;
71083;SDS011;58741;52.672;13.548;2023-04-21T09:08:09;5.90;;;3.08;;
71083;SDS011;58741;52.672;13.548;2023-04-21T09:10:46;3.22;;;2.53;;
71083;SDS011;58741;52.672;13.548;2023-04-21T09:13:14;2.13;;;1.90;;
71083;SDS011;58741;52.672;13.548;2023-04-21T09:15:41;3.95;;;2.80;;
71083;SDS011;58741;52.672;13.548;2023-04-21T09:18:13;3.22;;;1.98;;
71083;SDS011;58741;52.672;13.548;2023-04-21T09:20:43;5.82;;;2.50;;
71083;SDS011;58741;52.672;13.548;2023-04-21T09:23:11;3.65;;;2.50;;
71083;SDS011;58741;52.672;13.548;2023-04-21T09:25:37;2.63;;;1.90;;
71083;SDS011;58741;52.672;13.548;2023-04-21T09:28:11;4.38;;;2.20;;
71083;SDS011;58741;52.672;13.548;2023-04-21T09:30:39;2.38;;;2.08;;
71083;SDS011;58741;52.672;13.548;2023-04-21T09:33:06;2.05;;;1.60;;
71083;SDS011;58741;52.672;13.548;2023-04-21T09:35:35;2.60;;;2.05;;
71083;SDS011;58741;52.672;13.548;2023-04-21T09:38:03;2.80;;;2.13;;
71083;SDS011;58741;52.672;13.548;2023-04-21T09:40:33;3.53;;;2.63;;
71083;SDS011;58741;52.672;13.548;2023-04-21T09:42:59;4.07;;;2.78;;
71083;SDS011;58741;52.672;13.548;2023-04-21T09:45:25;4.63;;;2.67;;
71083;SDS011;58741;52.672;13.548;2023-04-21T09:47:53;3.08;;;2.05;;
71083;SDS011;58741;52.672;13.548;2023-04-21T09:50:21;2.10;;;1.80;;
71083;SDS011;58741;52.672;13.548;2023-04-21T09:52:49;2.40;;;1.73;;
71083;SDS011;58741;52.672;13.548;2023-04-21T09:55:17;7.90;;;2.00;;
71083;SDS011;58741;52.672;13.548;2023-04-21T09:57:44;2.17;;;1.55;;
71083;SDS011;58741;52.672;13.548;2023-04-21T10:00:12;4.38;;;2.10;;
71083;SDS011;58741;52.672;13.548;2023-04-21T10:02:43;4.22;;;2.35;;
71083;SDS011;58741;52.672;13.548;2023-04-21T10:05:12;2.38;;;1.77;;
71083;SDS011;58741;52.672;13.548;2023-04-21T10:07:38;3.00;;;1.80;;
71083;SDS011;58741;52.672;13.548;2023-04-21T10:10:06;2.45;;;1.98;;
71083;SDS011;58741;52.672;13.548;2023-04-21T10:12:36;2.42;;;1.83;;
71083;SDS011;58741;52.672;13.548;2023-04-21T10:15:03;4.40;;;1.83;;
71083;SDS011;58741;52.672;13.548;2023-04-21T10:17:31;3.85;;;2.30;;
71083;SDS011;58741;52.672;13.548;2023-04-21T10:20:03;3.42;;;1.73;;
71083;SDS011;58741;52.672;13.548;2023-04-21T10:22:32;3.17;;;2.08;;
71083;SDS011;58741;52.672;13.548;2023-04-21T10:25:02;2.58;;;2.00;;
71083;SDS011;58741;52.672;13.548;2023-04-21T10:30:17;5.10;;;1.40;;
71083;SDS011;58741;52.672;13.548;2023-04-21T10:35:21;1.80;;;1.60;;
71083;SDS011;58741;52.672;13.548;2023-04-21T10:37:47;2.95;;;2.03;;
71083;SDS011;58741;52.672;13.548;2023-04-21T10:42:54;2.40;;;1.52;;
71083;SDS011;58741;52.672;13.548;2023-04-21T10:45:19;3.60;;;2.50;;
71083;SDS011;58741;52.672;13.548;2023-04-21T10:47:48;1.98;;;1.65;;
71083;SDS011;58741;52.672;13.548;2023-04-21T10:50:23;2.08;;;1.52;;
71083;SDS011;58741;52.672;13.548;2023-04-21T10:55:34;3.30;;;1.85;;
71083;SDS011;58741;52.672;13.548;2023-04-21T10:58:03;2.60;;;1.65;;
71083;SDS011;58741;52.672;13.548;2023-04-21T11:00:30;3.33;;;1.48;;
71083;SDS011;58741;52.672;13.548;2023-04-21T11:02:58;8.23;;;2.10;;
71083;SDS011;58741;52.672;13.548;2023-04-21T11:05:30;2.13;;;1.63;;
71083;SDS011;58741;52.672;13.548;2023-04-21T11:08:02;1.70;;;1.60;;
71083;SDS011;58741;52.672;13.548;2023-04-21T11:13:09;3.67;;;2.25;;
71083;SDS011;58741;52.672;13.548;2023-04-21T11:15:35;6.70;;;2.35;;
71083;SDS011;58741;52.672;13.548;2023-04-21T11:18:01;2.70;;;1.95;;
71083;SDS011;58741;52.672;13.548;2023-04-21T11:20:27;3.25;;;1.92;;
71083;SDS011;58741;52.672;13.548;2023-04-21T11:22:52;3.67;;;1.98;;
71083;SDS011;58741;52.672;13.548;2023-04-21T11:25:20;3.65;;;2.00;;
71083;SDS011;58741;52.672;13.548;2023-04-21T11:27:53;2.95;;;1.75;;
71083;SDS011;58741;52.672;13.548;2023-04-21T11:30:20;1.98;;;1.77;;
71083;SDS011;58741;52.672;13.548;2023-04-21T11:32:54;5.82;;;1.98;;
71083;SDS011;58741;52.672;13.548;2023-04-21T11:35:20;3.60;;;2.15;;
71083;SDS011;58741;52.672;13.548;2023-04-21T11:37:48;2.08;;;1.80;;
71083;SDS011;58741;52.672;13.548;2023-04-21T11:40:15;4.70;;;2.00;;
71083;SDS011;58741;52.672;13.548;2023-04-21T11:42:41;1.95;;;1.42;;
71083;SDS011;58741;52.672;13.548;2023-04-21T11:45:06;4.03;;;2.35;;
71083;SDS011;58741;52.672;13.548;2023-04-21T11:47:34;2.25;;;1.73;;
71083;SDS011;58741;52.672;13.548;2023-04-21T11:50:01;2.40;;;1.60;;
71083;SDS011;58741;52.672;13.548;2023-04-21T11:52:31;1.80;;;1.63;;
71083;SDS011;58741;52.672;13.548;2023-04-21T11:57:25;3.45;;;1.88;;
71083;SDS011;58741;52.672;13.548;2023-04-21T11:59:52;1.90;;;1.50;;
71083;SDS011;58741;52.672;13.548;2023-04-21T12:02:22;11.35;;;1.90;;
71083;SDS011;58741;52.672;13.548;2023-04-21T12:04:59;1.88;;;1.38;;
71083;SDS011;58741;52.672;13.548;2023-04-21T12:07:30;2.47;;;1.95;;
71083;SDS011;58741;52.672;13.548;2023-04-21T12:09:57;4.32;;;2.38;;
71083;SDS011;58741;52.672;13.548;2023-04-21T12:12:24;1.65;;;1.55;;
71083;SDS011;58741;52.672;13.548;2023-04-21T12:14:50;3.13;;;1.73;;
71083;SDS011;58741;52.672;13.548;2023-04-21T12:17:17;1.90;;;1.70;;
71083;SDS011;58741;52.672;13.548;2023-04-21T12:19:43;2.40;;;1.88;;
71083;SDS011;58741;52.672;13.548;2023-04-21T12:22:09;1.48;;;1.38;;
71083;SDS011;58741;52.672;13.548;2023-04-21T12:24:36;3.85;;;1.40;;
71083;SDS011;58741;52.672;13.548;2023-04-21T12:27:02;3.53;;;1.50;;
71083;SDS011;58741;52.672;13.548;2023-04-21T12:29:29;1.98;;;1.77;;
71083;SDS011;58741;52.672;13.548;2023-04-21T12:31:55;4.25;;;2.05;;
71083;SDS011;58741;52.672;13.548;2023-04-21T12:34:20;2.75;;;1.60;;
71083;SDS011;58741;52.672;13.548;2023-04-21T12:36:46;2.00;;;1.77;;
71083;SDS011;58741;52.672;13.548;2023-04-21T12:39:12;1.85;;;1.65;;
71083;SDS011;58741;52.672;13.548;2023-04-21T12:41:38;3.65;;;2.55;;
71083;SDS011;58741;52.672;13.548;2023-04-21T12:44:04;3.22;;;1.60;;
71083;SDS011;58741;52.672;13.548;2023-04-21T12:46:30;3.30;;;2.10;;
71083;SDS011;58741;52.672;13.548;2023-04-21T12:48:56;2.25;;;1.90;;
71083;SDS011;58741;52.672;13.548;2023-04-21T12:51:21;1.92;;;1.70;;
71083;SDS011;58741;52.672;13.548;2023-04-21T12:53:47;3.10;;;1.70;;
71083;SDS011;58741;52.672;13.548;2023-04-21T12:56:13;2.00;;;1.73;;
71083;SDS011;58741;52.672;13.548;2023-04-21T12:58:39;1.88;;;1.55;;
71083;SDS011;58741;52.672;13.548;2023-04-21T13:01:06;5.40;;;2.10;;
71083;SDS011;58741;52.672;13.548;2023-04-21T13:03:32;3.45;;;2.08;;
71083;SDS011;58741;52.672;13.548;2023-04-21T13:05:57;1.95;;;1.77;;
71083;SDS011;58741;52.672;13.548;2023-04-21T13:08:23;2.00;;;1.67;;
71083;SDS011;58741;52.672;13.548;2023-04-21T13:10:49;2.30;;;1.98;;
71083;SDS011;58741;52.672;13.548;2023-04-21T13:13:14;1.70;;;1.55;;
71083;SDS011;58741;52.672;13.548;2023-04-21T13:15:40;1.35;;;1.23;;
71083;SDS011;58741;52.672;13.548;2023-04-21T13:18:06;4.75;;;2.15;;
71083;SDS011;58741;52.672;13.548;2023-04-21T13:20:31;1.73;;;1.60;;
71083;SDS011;58741;52.672;13.548;2023-04-21T13:22:57;3.03;;;1.90;;
71083;SDS011;58741;52.672;13.548;2023-04-21T13:25:22;2.22;;;1.98;;
71083;SDS011;58741;52.672;13.548;2023-04-21T13:27:48;1.98;;;1.63;;
71083;SDS011;58741;52.672;13.548;2023-04-21T13:30:14;5.10;;;2.17;;
71083;SDS011;58741;52.672;13.548;2023-04-21T13:32:41;4.43;;;2.00;;
71083;SDS011;58741;52.672;13.548;2023-04-21T13:35:07;2.15;;;1.88;;
71083;SDS011;58741;52.672;13.548;2023-04-21T13:37:37;2.20;;;1.60;;
71083;SDS011;58741;52.672;13.548;2023-04-21T13:40:04;2.47;;;1.67;;
71083;SDS011;58741;52.672;13.548;2023-04-21T13:42:31;1.60;;;1.50;;
71083;SDS011;58741;52.672;13.548;2023-04-21T13:44:57;1.63;;;1.52;;
71083;SDS011;58741;52.672;13.548;2023-04-21T13:47:23;1.85;;;1.70;;
71083;SDS011;58741;52.672;13.548;2023-04-21T13:49:49;4.38;;;2.08;;
71083;SDS011;58741;52.672;13.548;2023-04-21T13:52:15;4.22;;;1.63;;
71083;SDS011;58741;52.672;13.548;2023-04-21T13:54:41;3.25;;;2.20;;
71083;SDS011;58741;52.672;13.548;2023-04-21T13:57:07;1.55;;;1.38;;
71083;SDS011;58741;52.672;13.548;2023-04-21T13:59:32;1.83;;;1.55;;
71083;SDS011;58741;52.672;13.548;2023-04-21T14:01:59;1.60;;;1.50;;
71083;SDS011;58741;52.672;13.548;2023-04-21T14:04:25;2.63;;;1.67;;
71083;SDS011;58741;52.672;13.548;2023-04-21T14:06:50;2.50;;;1.58;;
71083;SDS011;58741;52.672;13.548;2023-04-21T14:09:16;1.65;;;1.50;;
71083;SDS011;58741;52.672;13.548;2023-04-21T14:11:42;2.03;;;1.77;;
71083;SDS011;58741;52.672;13.548;2023-04-21T14:14:07;2.28;;;1.48;;
71083;SDS011;58741;52.672;13.548;2023-04-21T14:16:33;2.20;;;1.80;;
71083;SDS011;58741;52.672;13.548;2023-04-21T14:18:58;4.00;;;1.90;;
71083;SDS011;58741;52.672;13.548;2023-04-21T14:21:24;2.10;;;1.70;;
71083;SDS011;58741;52.672;13.548;2023-04-21T14:23:50;3.28;;;1.83;;
71083;SDS011;58741;52.672;13.548;2023-04-21T14:26:15;1.60;;;1.48;;
71083;SDS011;58741;52.672;13.548;2023-04-21T14:28:41;1.77;;;1.40;;
71083;SDS011;58741;52.672;13.548;2023-04-21T14:31:07;1.65;;;1.55;;
71083;SDS011;58741;52.672;13.548;2023-04-21T14:33:32;3.15;;;1.80;;
71083;SDS011;58741;52.672;13.548;2023-04-21T14:35:59;2.10;;;1.70;;
71083;SDS011;58741;52.672;13.548;2023-04-21T14:38:24;1.52;;;1.42;;
71083;SDS011;58741;52.672;13.548;2023-04-21T14:40:50;3.28;;;2.03;;
71083;SDS011;58741;52.672;13.548;2023-04-21T14:43:19;2.00;;;1.80;;
71083;SDS011;58741;52.672;13.548;2023-04-21T14:45:45;4.10;;;1.88;;